createdAt,value
2022-10-29T00:00:51.629Z,91.66
2022-10-29T00:03:20.663Z,91.49
2022-10-29T00:05:59.711Z,90.91
2022-10-29T00:08:28.192Z,90.88
2022-10-29T00:10:58.199Z,90.73
2022-10-29T00:13:26.049Z,90.67
2022-10-29T00:15:53.806Z,90.96
2022-10-29T00:18:21.521Z,91.63
2022-10-29T00:20:49.725Z,91.33
2022-10-29T00:23:17.611Z,91.53
2022-10-29T00:25:45.573Z,90.98
2022-10-29T00:28:15.093Z,91.16
2022-10-29T00:30:42.846Z,91.51
2022-10-29T00:33:10.743Z,92.24
2022-10-29T00:35:38.519Z,92.36
2022-10-29T00:38:06.810Z,91.86
2022-10-29T00:40:37.754Z,92.21
2022-10-29T00:43:17.630Z,92.19
2022-10-29T00:45:50.577Z,92.32
2022-10-29T00:48:18.740Z,92.09
2022-10-29T00:50:48.881Z,92.27
2022-10-29T00:53:24.913Z,91.91
2022-10-29T00:55:52.808Z,91.97
2022-10-29T00:58:23.534Z,91.99
2022-10-29T01:00:51.322Z,92.01
2022-10-29T01:03:19.287Z,92.40
2022-10-29T01:05:47.968Z,92.38
2022-10-29T01:08:17.492Z,92.39
2022-10-29T01:10:59.002Z,92.19
2022-10-29T01:13:41.085Z,92.23
2022-10-29T01:16:16.387Z,92.49
2022-10-29T01:18:55.455Z,92.27
2022-10-29T01:21:43.403Z,91.97
2022-10-29T01:24:50.578Z,92.32
2022-10-29T01:27:58.419Z,92.94
2022-10-29T01:31:06.653Z,92.31
2022-10-29T01:33:39.747Z,92.02
2022-10-29T01:36:17.044Z,92.04
2022-10-29T01:38:52.640Z,92.48
2022-10-29T01:41:26.966Z,92.26
2022-10-29T01:44:01.693Z,92.47
2022-10-29T01:46:38.135Z,92.93
2022-10-29T01:49:12.860Z,92.25
2022-10-29T01:51:41.482Z,92.72
2022-10-29T01:54:12.022Z,92.64
2022-10-29T01:56:41.423Z,92.52
2022-10-29T01:59:22.977Z,92.58
2022-10-29T02:02:14.542Z,92.14
2022-10-29T02:05:00.302Z,92.89
2022-10-29T02:07:39.295Z,92.60
2022-10-29T02:10:16.161Z,92.45
2022-10-29T02:12:49.939Z,92.77
2022-10-29T02:15:20.704Z,93.22
2022-10-29T02:17:50.411Z,92.62
2022-10-29T02:20:18.888Z,93.27
2022-10-29T02:22:46.731Z,93.10
2022-10-29T02:25:15.319Z,93.27
2022-10-29T02:27:43.069Z,92.77
2022-10-29T02:30:11.712Z,92.67
2022-10-29T02:32:39.526Z,92.67
2022-10-29T02:35:10.033Z,92.41
2022-10-29T02:37:37.827Z,92.85
2022-10-29T02:40:06.693Z,92.79
2022-10-29T02:42:34.729Z,92.60
2022-10-29T02:45:02.623Z,92.29
2022-10-29T02:47:30.561Z,92.11
2022-10-29T02:49:58.405Z,92.42
2022-10-29T02:52:27.861Z,92.20
2022-10-29T02:54:55.667Z,92.47
2022-10-29T02:57:24.990Z,93.31
2022-10-29T02:59:52.851Z,92.77
2022-10-29T03:02:23.993Z,92.61
2022-10-29T03:04:53.460Z,92.32
2022-10-29T03:07:21.247Z,92.13
2022-10-29T03:09:50.379Z,92.25
2022-10-29T03:12:18.100Z,92.58
2022-10-29T03:14:46.083Z,92.82
2022-10-29T03:17:13.835Z,92.50
2022-10-29T03:19:41.697Z,92.89
2022-10-29T03:22:09.892Z,92.58
2022-10-29T03:24:38.139Z,92.58
2022-10-29T03:27:07.222Z,92.07
2022-10-29T03:29:34.948Z,92.31
2022-10-29T03:32:03.483Z,92.94
2022-10-29T03:34:31.459Z,93.11
2022-10-29T03:36:59.193Z,93.28
2022-10-29T03:39:28.292Z,93.00
2022-10-29T03:41:56.097Z,92.58
2022-10-29T03:44:25.194Z,92.89
2022-10-29T03:46:52.909Z,92.52
2022-10-29T03:49:20.638Z,92.69
2022-10-29T03:51:48.336Z,92.33
2022-10-29T03:54:16.309Z,92.10
2022-10-29T03:56:44.100Z,92.55
2022-10-29T03:59:11.832Z,92.86
2022-10-29T04:01:41.053Z,92.65
2022-10-29T04:04:08.914Z,92.95
2022-10-29T04:06:36.608Z,93.06
2022-10-29T04:09:04.646Z,93.08
2022-10-29T04:11:32.440Z,93.17
2022-10-29T04:14:00.149Z,93.22
2022-10-29T04:16:27.876Z,92.90
2022-10-29T04:18:56.982Z,92.79
2022-10-29T04:24:32.444Z,92.58
2022-10-29T04:29:47.861Z,92.27
2022-10-29T04:32:15.624Z,92.25
2022-10-29T04:34:44.720Z,92.77
2022-10-29T04:37:12.510Z,92.54
2022-10-29T04:39:40.252Z,92.36
2022-10-29T04:42:08.080Z,92.22
2022-10-29T04:44:35.926Z,92.10
2022-10-29T04:47:03.767Z,91.10
2022-10-29T04:49:31.630Z,90.58
2022-10-29T04:52:00.860Z,90.74
2022-10-29T04:54:28.714Z,91.04
2022-10-29T04:56:56.440Z,91.31
2022-10-29T04:59:24.347Z,91.69
2022-10-29T05:01:52.137Z,91.47
2022-10-29T05:04:19.935Z,91.58
2022-10-29T05:06:47.701Z,92.03
2022-10-29T05:09:16.817Z,91.75
2022-10-29T05:11:44.777Z,91.44
2022-10-29T05:14:12.595Z,91.38
2022-10-29T05:16:40.444Z,91.39
2022-10-29T05:19:08.129Z,91.44
2022-10-29T05:21:35.982Z,91.02
2022-10-29T05:24:03.830Z,90.57
2022-10-29T05:26:33.194Z,90.59
2022-10-29T05:29:00.942Z,90.63
2022-10-29T05:31:28.712Z,90.72
2022-10-29T05:33:56.538Z,90.93
2022-10-29T05:36:24.439Z,89.95
2022-10-29T05:38:52.249Z,90.44
2022-10-29T05:41:20.092Z,90.78
2022-10-29T05:43:51.079Z,90.96
2022-10-29T05:46:19.013Z,90.88
2022-10-29T05:48:46.808Z,91.04
2022-10-29T05:51:14.587Z,91.49
2022-10-29T05:53:42.313Z,91.55
2022-10-29T05:56:10.045Z,91.62
2022-10-29T05:58:37.817Z,91.60
2022-10-29T06:01:08.969Z,91.25
2022-10-29T06:03:37.150Z,91.89
2022-10-29T06:06:05.341Z,91.98
2022-10-29T06:08:33.228Z,91.33
2022-10-29T06:11:02.801Z,91.37
2022-10-29T06:13:31.133Z,91.52
2022-10-29T06:16:00.570Z,91.32
2022-10-29T06:18:29.709Z,91.52
2022-10-29T06:21:00.342Z,91.61
2022-10-29T06:23:28.342Z,91.49
2022-10-29T06:25:56.096Z,92.05
2022-10-29T06:28:23.896Z,91.31
2022-10-29T06:30:52.272Z,91.54
2022-10-29T06:33:20.536Z,91.27
2022-10-29T06:35:49.851Z,91.23
2022-10-29T06:38:17.616Z,91.15
2022-10-29T06:40:53.389Z,91.13
2022-10-29T06:43:21.536Z,90.96
2022-10-29T06:45:49.959Z,90.85
2022-10-29T06:48:21.685Z,90.77
2022-10-29T06:50:51.490Z,90.88
2022-10-29T06:53:19.487Z,90.79
2022-10-29T06:55:47.403Z,90.88
2022-10-29T06:58:17.073Z,90.74
2022-10-29T07:00:45.622Z,90.43
2022-10-29T07:03:14.274Z,90.04
2022-10-29T07:05:42.040Z,90.22
2022-10-29T07:08:11.194Z,90.25
2022-10-29T07:10:39.664Z,89.68
2022-10-29T07:13:07.439Z,89.77
2022-10-29T07:15:35.306Z,89.51
2022-10-29T07:18:05.216Z,89.03
2022-10-29T07:20:34.687Z,89.40
2022-10-29T07:23:02.819Z,88.86
2022-10-29T07:25:32.758Z,88.64
2022-10-29T07:28:04.252Z,87.97
2022-10-29T07:30:32.200Z,87.85
2022-10-29T07:32:59.985Z,87.77
2022-10-29T07:35:27.832Z,87.70
2022-10-29T07:38:03.637Z,87.72
2022-10-29T07:40:40.212Z,88.02
2022-10-29T07:43:08.115Z,87.35
2022-10-29T07:45:35.957Z,87.52
2022-10-29T07:48:07.165Z,86.94
2022-10-29T07:50:35.265Z,86.35
2022-10-29T07:53:04.402Z,86.07
2022-10-29T07:55:32.311Z,85.55
2022-10-29T07:58:03.350Z,85.20
2022-10-29T08:00:32.320Z,84.39
2022-10-29T08:03:00.181Z,85.42
2022-10-29T08:05:29.457Z,84.13
2022-10-29T08:07:58.285Z,83.35
2022-10-29T08:10:27.174Z,83.70
2022-10-29T08:12:56.802Z,82.15
2022-10-29T08:15:27.572Z,79.91
2022-10-29T08:17:55.648Z,79.86
2022-10-29T08:20:25.195Z,79.87
2022-10-29T08:22:52.971Z,78.88
2022-10-29T08:25:21.072Z,80.22
2022-10-29T08:27:59.290Z,79.69
2022-10-29T08:30:28.861Z,79.22
2022-10-29T08:32:57.058Z,79.67
2022-10-29T08:35:25.325Z,78.93
2022-10-29T08:37:53.157Z,78.92
2022-10-29T08:40:30.005Z,80.47
2022-10-29T08:43:26.428Z,80.05
2022-10-29T08:45:56.696Z,81.10
2022-10-29T08:48:34.264Z,81.96
2022-10-29T08:51:10.724Z,81.54
2022-10-29T08:53:42.298Z,81.39
2022-10-29T08:56:16.937Z,82.00
2022-10-29T08:58:53.589Z,82.12
2022-10-29T09:01:24.653Z,81.23
2022-10-29T09:03:52.772Z,80.50
2022-10-29T09:06:29.794Z,80.96
2022-10-29T09:09:18.141Z,81.46
2022-10-29T09:12:02.340Z,80.05
2022-10-29T09:14:47.177Z,78.51
2022-10-29T09:17:27.998Z,78.53
2022-10-29T09:20:23.222Z,78.09
2022-10-29T09:23:02.977Z,77.64
2022-10-29T09:25:34.451Z,78.49
2022-10-29T09:28:18.385Z,77.91
2022-10-29T09:30:58.534Z,78.40
2022-10-29T09:33:28.806Z,76.68
2022-10-29T09:35:59.740Z,77.03
2022-10-29T09:38:32.828Z,76.36
2022-10-29T09:41:03.141Z,75.86
2022-10-29T09:43:39.754Z,74.39
2022-10-29T09:46:14.501Z,72.67
2022-10-29T09:48:55.438Z,72.70
2022-10-29T09:51:34.556Z,72.09
2022-10-29T09:54:02.888Z,72.84
2022-10-29T09:56:30.850Z,70.87
2022-10-29T09:59:18.451Z,72.16
2022-10-29T10:01:48.310Z,72.76
2022-10-29T10:04:23.627Z,72.00
2022-10-29T10:07:07.275Z,73.06
2022-10-29T10:09:59.607Z,71.59
2022-10-29T10:12:32.171Z,71.86
2022-10-29T10:15:09.156Z,71.67
2022-10-29T10:17:59.425Z,71.76
2022-10-29T10:20:40.877Z,72.79
2022-10-29T10:23:23.613Z,70.80
2022-10-29T10:25:52.591Z,70.12
2022-10-29T10:28:22.858Z,72.41
2022-10-29T10:31:13.887Z,70.80
2022-10-29T10:33:53.119Z,69.97
2022-10-29T10:36:26.213Z,69.18
2022-10-29T10:38:56.309Z,68.59
2022-10-29T10:41:26.840Z,68.03
2022-10-29T10:44:00.264Z,67.19
2022-10-29T10:46:31.729Z,69.09
2022-10-29T10:49:07.414Z,70.38
2022-10-29T10:51:38.537Z,68.37
2022-10-29T10:54:27.342Z,68.58
2022-10-29T10:57:00.521Z,67.25
2022-10-29T10:59:41.061Z,65.74
2022-10-29T11:02:21.664Z,64.81
2022-10-29T11:04:53.013Z,65.17
2022-10-29T11:07:24.870Z,64.89
2022-10-29T11:09:56.689Z,65.14
2022-10-29T11:12:31.934Z,66.55
2022-10-29T11:15:05.154Z,67.59
2022-10-29T11:17:40.504Z,65.43
2022-10-29T11:20:16.974Z,66.33
2022-10-29T11:22:55.814Z,64.28
2022-10-29T11:25:29.696Z,63.63
2022-10-29T11:28:04.636Z,65.01
2022-10-29T11:30:41.190Z,63.22
2022-10-29T11:33:19.048Z,63.49
2022-10-29T11:35:51.493Z,63.91
2022-10-29T11:38:27.254Z,63.28
2022-10-29T11:41:04.726Z,64.33
2022-10-29T11:43:34.110Z,64.27
2022-10-29T11:46:12.467Z,62.69
2022-10-29T11:48:52.036Z,65.31
2022-10-29T11:51:33.207Z,63.98
2022-10-29T11:54:07.662Z,62.62
2022-10-29T11:56:48.796Z,60.79
2022-10-29T11:59:28.413Z,60.23
2022-10-29T12:02:08.622Z,60.60
2022-10-29T12:04:42.327Z,59.24
2022-10-29T12:07:23.914Z,59.85
2022-10-29T12:10:28.755Z,60.00
2022-10-29T12:13:04.429Z,61.21
2022-10-29T12:15:38.050Z,61.25
2022-10-29T12:18:17.749Z,59.15
2022-10-29T12:21:16.115Z,60.20
2022-10-29T12:23:55.383Z,58.67
2022-10-29T12:26:31.567Z,59.27
2022-10-29T12:29:11.426Z,59.50
2022-10-29T12:31:46.706Z,58.42
2022-10-29T12:34:23.069Z,57.89
2022-10-29T12:36:59.340Z,57.77
2022-10-29T12:39:30.365Z,56.75
2022-10-29T12:42:04.268Z,62.28
2022-10-29T12:44:45.020Z,62.34
2022-10-29T12:47:18.367Z,61.35
2022-10-29T12:49:56.408Z,64.19
2022-10-29T12:52:30.452Z,65.29
2022-10-29T12:55:00.840Z,64.08
2022-10-29T12:57:35.278Z,63.86
2022-10-29T13:00:48.507Z,61.87
2022-10-29T13:03:54.486Z,61.86
2022-10-29T13:06:47.001Z,63.03
2022-10-29T13:09:19.934Z,62.86
2022-10-29T13:11:49.718Z,61.70
2022-10-29T13:14:25.311Z,61.82
2022-10-29T13:16:54.711Z,60.84
2022-10-29T13:19:45.536Z,61.55
2022-10-29T13:22:35.548Z,60.42
2022-10-29T13:25:43.664Z,60.32
2022-10-29T13:28:46.726Z,59.56
2022-10-29T13:31:43.470Z,59.41
2022-10-29T13:34:11.265Z,59.54
2022-10-29T13:36:39.298Z,59.99
2022-10-29T13:39:19.820Z,60.32
2022-10-29T13:41:52.064Z,61.55
2022-10-29T13:44:23.813Z,62.24
2022-10-29T13:46:57.294Z,62.18
2022-10-29T13:49:30.443Z,62.62
2022-10-29T13:52:01.457Z,62.30
2022-10-29T13:54:38.995Z,62.59
2022-10-29T13:57:15.451Z,62.75
2022-10-29T13:59:47.665Z,63.57
2022-10-29T14:02:24.586Z,63.47
2022-10-29T14:04:57.449Z,63.27
2022-10-29T14:07:31.687Z,62.99
2022-10-29T14:10:16.319Z,62.79
2022-10-29T14:12:47.315Z,63.17
2022-10-29T14:15:16.586Z,63.73
2022-10-29T14:17:45.900Z,63.14
2022-10-29T14:20:22.513Z,63.24
2022-10-29T14:22:50.293Z,64.64
2022-10-29T14:25:32.701Z,64.52
2022-10-29T14:28:25.679Z,63.60
2022-10-29T14:31:02.490Z,63.90
2022-10-29T14:33:33.838Z,63.69
2022-10-29T14:36:12.707Z,63.75
2022-10-29T14:38:47.989Z,63.64
2022-10-29T14:41:16.643Z,63.56
2022-10-29T14:43:46.653Z,64.79
2022-10-29T14:46:22.139Z,65.34
2022-10-29T14:49:00.654Z,64.35
2022-10-29T14:51:30.402Z,64.45
2022-10-29T14:54:02.678Z,64.49
2022-10-29T14:56:36.532Z,65.28
2022-10-29T14:59:11.432Z,66.09
2022-10-29T15:01:47.695Z,68.13
2022-10-29T15:04:26.138Z,67.56
2022-10-29T15:06:56.832Z,67.91
2022-10-29T15:09:28.400Z,68.47
2022-10-29T15:12:01.738Z,68.68
2022-10-29T15:14:36.551Z,68.67
2022-10-29T15:17:11.446Z,69.84
2022-10-29T15:19:46.070Z,70.46
2022-10-29T15:22:20.564Z,70.43
2022-10-29T15:24:51.604Z,72.15
2022-10-29T15:27:21.923Z,72.36
2022-10-29T15:29:50.508Z,72.83
2022-10-29T15:34:53.289Z,73.74
2022-10-29T15:37:25.767Z,73.65
2022-10-29T15:40:03.293Z,74.59
2022-10-29T15:42:33.230Z,74.45
2022-10-29T15:45:19.471Z,74.92
2022-10-29T15:47:49.593Z,75.24
2022-10-29T15:50:21.571Z,75.92
2022-10-29T15:52:54.137Z,76.50
2022-10-29T15:55:26.897Z,76.54
2022-10-29T15:58:00.576Z,76.61
2022-10-29T16:00:29.517Z,77.47
2022-10-29T16:03:03.398Z,77.87
2022-10-29T16:05:32.853Z,78.13
2022-10-29T16:08:03.286Z,78.78
2022-10-29T16:10:31.401Z,80.69
2022-10-29T16:13:00.208Z,82.31
2022-10-29T16:18:00.989Z,82.71
2022-10-29T16:20:28.865Z,83.22
2022-10-29T16:22:58.223Z,83.25
2022-10-29T16:25:27.851Z,83.67
2022-10-29T16:27:56.304Z,83.81
2022-10-29T16:30:24.936Z,84.26
2022-10-29T16:32:53.397Z,84.41
2022-10-29T16:35:23.067Z,84.74
2022-10-29T16:37:52.106Z,85.22
2022-10-29T16:40:23.462Z,85.30
2022-10-29T16:42:51.761Z,85.76
2022-10-29T16:45:22.393Z,85.89
2022-10-29T16:47:51.942Z,86.04
2022-10-29T16:50:22.061Z,86.49
2022-10-29T16:52:56.755Z,86.81
2022-10-29T16:55:26.251Z,87.17
2022-10-29T16:57:54.504Z,87.54
2022-10-29T17:00:23.267Z,87.62
2022-10-29T17:02:51.045Z,87.74
2022-10-29T17:05:19.473Z,88.14
2022-10-29T17:07:47.259Z,88.90
2022-10-29T17:10:17.257Z,89.11
2022-10-29T17:12:46.437Z,88.52
2022-10-29T17:15:14.650Z,88.55
2022-10-29T17:17:45.497Z,88.81
2022-10-29T17:20:14.712Z,88.97
2022-10-29T17:22:42.550Z,89.10
2022-10-29T17:25:10.941Z,89.46
2022-10-29T17:27:39.421Z,89.57
2022-10-29T17:30:10.860Z,89.27
2022-10-29T17:32:38.692Z,89.28
2022-10-29T17:35:07.241Z,89.21
2022-10-29T17:37:35.362Z,89.34
2022-10-29T17:40:06.951Z,89.21
2022-10-29T17:42:36.787Z,89.35
2022-10-29T17:45:10.232Z,89.24
2022-10-29T17:50:11.315Z,90.07
2022-10-29T17:52:39.042Z,90.47
2022-10-29T17:55:07.846Z,90.73
2022-10-29T17:57:36.029Z,90.48
2022-10-29T18:00:04.716Z,90.42
2022-10-29T18:02:34.031Z,90.30
2022-10-29T18:05:01.962Z,90.54
2022-10-29T18:07:29.835Z,90.79
2022-10-29T18:09:57.899Z,90.57
2022-10-29T18:12:25.880Z,90.29
2022-10-29T18:14:53.743Z,89.97
2022-10-29T18:17:21.738Z,90.25
2022-10-29T18:19:51.060Z,90.65
2022-10-29T18:22:19.124Z,90.77
2022-10-29T18:24:46.977Z,90.79
2022-10-29T18:27:14.924Z,90.45
2022-10-29T18:29:42.712Z,90.46
2022-10-29T18:32:10.488Z,90.55
2022-10-29T18:34:38.451Z,90.47
2022-10-29T18:37:07.820Z,90.21
2022-10-29T18:39:35.753Z,90.22
2022-10-29T18:42:03.596Z,90.53
2022-10-29T18:44:31.616Z,90.35
2022-10-29T18:46:59.517Z,90.45
2022-10-29T18:49:28.011Z,91.48
2022-10-29T18:51:55.936Z,90.90
2022-10-29T18:54:25.204Z,90.30
2022-10-29T18:56:53.049Z,90.80
2022-10-29T18:59:21.476Z,90.81
2022-10-29T19:01:49.332Z,91.19
2022-10-29T19:04:17.431Z,91.44
2022-10-29T19:06:45.300Z,90.86
2022-10-29T19:09:13.452Z,90.77
2022-10-29T19:11:42.747Z,90.81
2022-10-29T19:14:17.579Z,90.99
2022-10-29T19:16:45.505Z,90.91
2022-10-29T19:19:17.033Z,91.00
2022-10-29T19:21:46.495Z,90.64
2022-10-29T19:24:15.863Z,91.09
2022-10-29T19:26:45.156Z,90.83
2022-10-29T19:29:14.195Z,90.13
2022-10-29T19:31:42.518Z,90.39
2022-10-29T19:34:10.848Z,89.82
2022-10-29T19:36:40.150Z,90.39
2022-10-29T19:39:08.760Z,90.37
2022-10-29T19:41:36.830Z,90.29
2022-10-29T19:44:06.505Z,90.07
2022-10-29T19:46:34.550Z,89.85
2022-10-29T19:49:02.561Z,89.81
2022-10-29T19:51:30.567Z,89.86
2022-10-29T19:54:01.443Z,90.77
2022-10-29T19:56:29.373Z,90.52
2022-10-29T19:58:57.153Z,90.67
2022-10-29T20:01:26.506Z,91.03
2022-10-29T20:03:54.489Z,90.99
2022-10-29T20:06:22.374Z,90.91
2022-10-29T20:08:50.360Z,90.84
2022-10-29T20:11:18.362Z,90.89
2022-10-29T20:13:46.585Z,91.15
2022-10-29T20:16:16.993Z,91.43
2022-10-29T20:18:46.487Z,90.85
2022-10-29T20:21:15.159Z,91.02
2022-10-29T20:23:43.221Z,90.98
2022-10-29T20:26:11.704Z,90.73
2022-10-29T20:28:39.514Z,90.76
2022-10-29T20:31:30.142Z,91.09
2022-10-29T20:34:01.485Z,90.96
2022-10-29T20:36:32.230Z,90.50
2022-10-29T20:39:00.329Z,90.56
2022-10-29T20:41:29.150Z,90.19
2022-10-29T20:44:00.898Z,90.40
2022-10-29T20:46:29.678Z,89.74
2022-10-29T20:48:58.014Z,89.98
2022-10-29T20:51:28.374Z,90.19
2022-10-29T20:53:58.237Z,90.32
2022-10-29T20:56:28.355Z,90.21
2022-10-29T20:58:56.426Z,90.49
2022-10-29T21:01:25.899Z,90.60
2022-10-29T21:03:54.365Z,90.54
2022-10-29T21:06:22.928Z,90.16
2022-10-29T21:08:53.268Z,90.53
2022-10-29T21:11:22.810Z,90.85
2022-10-29T21:13:51.557Z,90.62
2022-10-29T21:16:21.318Z,90.70
2022-10-29T21:18:50.889Z,90.84
2022-10-29T21:21:19.819Z,90.84
2022-10-29T21:23:48.053Z,91.16
2022-10-29T21:26:19.255Z,91.46
2022-10-29T21:28:48.460Z,91.37
2022-10-29T21:31:16.672Z,90.76
2022-10-29T21:33:44.723Z,91.05
2022-10-29T21:36:14.130Z,90.80
2022-10-29T21:38:42.174Z,90.75
2022-10-29T21:41:10.027Z,90.96
2022-10-29T21:43:39.676Z,91.48
2022-10-29T21:46:08.227Z,91.11
2022-10-29T21:48:36.663Z,91.22
2022-10-29T21:51:07.060Z,90.84
2022-10-29T21:53:35.323Z,91.58
2022-10-29T21:56:04.819Z,91.44
2022-10-29T21:58:32.697Z,91.15
2022-10-29T22:01:07.181Z,91.03
2022-10-29T22:03:36.088Z,91.26
2022-10-29T22:06:05.898Z,91.11
2022-10-29T22:08:34.836Z,92.06
2022-10-29T22:11:03.699Z,91.41
2022-10-29T22:13:33.590Z,91.29
2022-10-29T22:16:02.250Z,91.16
2022-10-29T22:18:31.611Z,91.26
2022-10-29T22:21:08.079Z,90.98
2022-10-29T22:23:37.948Z,90.68
2022-10-29T22:26:06.028Z,90.78
2022-10-29T22:28:33.822Z,90.64
2022-10-29T22:31:03.254Z,90.47
2022-10-29T22:33:32.803Z,90.32
2022-10-29T22:36:09.373Z,90.37
2022-10-29T22:38:37.442Z,90.21
2022-10-29T22:41:06.617Z,90.06
2022-10-29T22:43:34.606Z,89.91
2022-10-29T22:46:02.851Z,90.15
2022-10-29T22:48:32.207Z,89.95
2022-10-29T22:51:01.594Z,90.32
2022-10-29T22:53:29.572Z,90.13
2022-10-29T22:55:57.397Z,89.91
2022-10-29T22:58:25.366Z,90.10
2022-10-29T23:01:02.709Z,89.63
2022-10-29T23:03:32.093Z,89.59
2022-10-29T23:06:01.416Z,89.47
2022-10-29T23:08:29.974Z,89.58
2022-10-29T23:10:58.051Z,89.00
2022-10-29T23:13:26.000Z,88.91
2022-10-29T23:15:54.499Z,89.24
2022-10-29T23:18:22.218Z,89.28
2022-10-29T23:20:58.761Z,89.34
2022-10-29T23:23:26.538Z,89.05
2022-10-29T23:25:57.648Z,89.00
2022-10-29T23:28:25.400Z,88.81
2022-10-29T23:30:53.975Z,89.06
2022-10-29T23:33:21.874Z,88.88
2022-10-29T23:35:51.597Z,89.23
2022-10-29T23:38:19.428Z,89.45
2022-10-29T23:40:48.371Z,89.31
2022-10-29T23:43:16.440Z,89.28
2022-10-29T23:45:44.418Z,89.62
2022-10-29T23:48:12.199Z,89.36
2022-10-29T23:50:40.318Z,89.33
2022-10-29T23:53:09.584Z,89.29
2022-10-29T23:55:37.714Z,89.52
2022-10-29T23:58:06.000Z,89.65
